Terminal Aerodrome Forecast
Issued by NWS

Home | Current Version | Previous Version | Text Only | Print | Product List | Glossary On
Versions: 1 2 3 4 5 6 7 8 9 10 11 12 13 14 15 16 17 18
977
FTAK31 PAJN 281204 AAA
TAFAYA
TAF AMD
PAYA 281204Z 2812/2912 14008KT 3SM -SHRA BR OVC009
      TEMPO 2812/2816 14008G18KT 1SM SHRA BR BKN003 OVC009
     FM282100 13010KT 3SM -SHRA BR BKN015 OVC025
     FM290300 10006KT 4SM -SHRA BR SCT007 OVC015
     FM290900 09004KT 5SM -SHRA BR BKN007 OVC015
      AMD LTD TO CLD VIS AND WIND 2901/2909=

USA.gov is the U.S. government's official web portal to all federal, state and local government web resources and services.